createdAt,value
2018-09-22T00:01:06.634Z,100900.00
2018-09-22T00:03:34.808Z,100902.19
2018-09-22T00:06:03.103Z,100905.95
2018-09-22T00:08:31.253Z,100897.87
2018-09-22T00:10:59.457Z,100893.64
2018-09-22T00:13:27.709Z,100892.73
2018-09-22T00:15:56.041Z,100893.66
2018-09-22T00:18:24.262Z,100890.49
2018-09-22T00:20:52.443Z,100910.41
2018-09-22T00:23:20.692Z,100901.80
2018-09-22T00:25:48.881Z,100913.61
2018-09-22T00:28:17.048Z,100915.63
2018-09-22T00:30:45.209Z,100912.69
2018-09-22T00:33:13.374Z,100921.55
2018-09-22T00:35:41.546Z,100921.79
2018-09-22T00:38:12.744Z,100926.02
2018-09-22T00:40:41.100Z,100919.87
2018-09-22T00:43:09.808Z,100931.47
2018-09-22T00:45:38.062Z,100933.20
2018-09-22T00:48:06.241Z,100934.67
2018-09-22T00:50:34.539Z,100935.44
2018-09-22T00:53:02.819Z,100937.19
2018-09-22T00:55:31.006Z,100928.96
2018-09-22T00:57:59.137Z,100931.52
2018-09-22T01:00:27.308Z,100942.99
2018-09-22T01:02:55.564Z,100943.48
2018-09-22T01:05:23.878Z,100943.16
2018-09-22T01:07:52.114Z,100946.66
2018-09-22T01:10:20.300Z,100950.83
2018-09-22T01:12:48.564Z,100958.23
2018-09-22T01:15:16.734Z,100962.27
2018-09-22T01:17:44.964Z,100960.19
2018-09-22T01:20:13.287Z,100958.57
2018-09-22T01:22:41.480Z,100959.37
2018-09-22T01:25:09.734Z,100957.42
2018-09-22T01:27:38.142Z,100954.64
2018-09-22T01:30:06.349Z,100953.91
2018-09-22T01:32:34.520Z,100955.22
2018-09-22T01:35:02.741Z,100959.58
2018-09-22T01:37:30.970Z,100971.17
2018-09-22T01:39:59.166Z,100972.91
2018-09-22T01:42:27.327Z,100972.64
2018-09-22T01:44:55.474Z,100975.37
2018-09-22T01:47:23.643Z,100974.41
2018-09-22T01:49:52.452Z,100968.80
2018-09-22T01:52:20.644Z,100972.22
2018-09-22T01:54:49.792Z,100978.17
2018-09-22T01:57:17.981Z,100981.13
2018-09-22T01:59:46.172Z,100971.78
2018-09-22T02:02:14.354Z,100971.17
2018-09-22T02:04:42.569Z,100975.68
2018-09-22T02:07:10.717Z,100982.16
2018-09-22T02:09:38.835Z,100995.41
2018-09-22T02:12:07.078Z,100997.41
2018-09-22T02:14:35.287Z,100995.12
2018-09-22T02:17:03.468Z,100999.23
2018-09-22T02:19:31.625Z,100999.47
2018-09-22T02:21:59.878Z,101007.12
2018-09-22T02:24:28.104Z,101006.86
2018-09-22T02:26:56.342Z,101005.06
2018-09-22T02:29:24.564Z,101000.02
2018-09-22T02:31:52.790Z,101002.47
2018-09-22T02:34:21.001Z,101001.53
2018-09-22T02:36:49.208Z,100999.54
2018-09-22T02:39:17.338Z,101011.42
2018-09-22T02:41:45.430Z,101005.99
2018-09-22T02:44:13.677Z,101003.38
2018-09-22T02:46:41.835Z,101007.41
2018-09-22T02:49:10.010Z,101007.17
2018-09-22T02:51:38.147Z,101004.78
2018-09-22T02:54:06.304Z,101015.48
2018-09-22T02:56:34.489Z,101009.66
2018-09-22T02:59:02.687Z,101002.30
2018-09-22T03:01:30.888Z,101013.47
2018-09-22T03:03:59.069Z,101005.45
2018-09-22T03:06:27.257Z,101008.12
2018-09-22T03:08:55.458Z,101009.42
2018-09-22T03:11:23.619Z,101014.14
2018-09-22T03:13:51.841Z,101022.00
2018-09-22T03:16:20.041Z,101023.51
2018-09-22T03:18:48.466Z,101022.37
2018-09-22T03:21:16.808Z,101021.27
2018-09-22T03:23:44.970Z,101013.11
2018-09-22T03:26:13.145Z,101029.41
2018-09-22T03:28:41.821Z,101020.78
2018-09-22T03:31:10.228Z,101023.58
2018-09-22T03:33:38.380Z,101015.61
2018-09-22T03:36:06.534Z,101028.91
2018-09-22T03:38:34.730Z,101027.17
2018-09-22T03:41:02.904Z,101032.02
2018-09-22T03:43:31.179Z,101038.92
2018-09-22T03:45:59.470Z,101045.73
2018-09-22T03:48:28.351Z,101049.65
2018-09-22T03:50:56.556Z,101049.78
2018-09-22T03:53:24.701Z,101042.36
2018-09-22T03:55:52.909Z,101048.62
2018-09-22T03:58:21.064Z,101044.08
2018-09-22T04:00:49.299Z,101045.20
2018-09-22T04:03:17.458Z,101050.13
2018-09-22T04:05:46.277Z,101051.59
2018-09-22T04:08:14.427Z,101051.06
2018-09-22T04:10:42.642Z,101047.44
2018-09-22T04:13:10.811Z,101056.66
2018-09-22T04:15:38.978Z,101057.48
2018-09-22T04:18:07.462Z,101046.46
2018-09-22T04:20:35.633Z,101057.91
2018-09-22T04:23:03.807Z,101055.30
2018-09-22T04:25:32.014Z,101062.70
2018-09-22T04:28:00.196Z,101070.38
2018-09-22T04:30:28.340Z,101067.09
2018-09-22T04:32:56.507Z,101072.92
2018-09-22T04:35:24.688Z,101080.20
2018-09-22T04:37:52.954Z,101077.67
2018-09-22T04:40:21.222Z,101071.31
2018-09-22T04:42:49.408Z,101080.20
2018-09-22T04:45:17.683Z,101081.01
2018-09-22T04:47:45.938Z,101086.39
2018-09-22T04:50:14.144Z,101087.67
2018-09-22T04:52:42.334Z,101089.77
2018-09-22T04:55:10.480Z,101092.88
2018-09-22T04:57:38.814Z,101093.11
2018-09-22T05:00:07.820Z,101094.75
2018-09-22T05:02:36.043Z,101098.75
2018-09-22T05:05:04.484Z,101107.42
2018-09-22T05:07:32.655Z,101108.53
2018-09-22T05:10:00.849Z,101116.06
2018-09-22T05:12:29.496Z,101128.29
2018-09-22T05:14:57.750Z,101125.48
2018-09-22T05:17:25.922Z,101135.46
2018-09-22T05:19:54.176Z,101150.03
2018-09-22T05:22:22.388Z,101137.48
2018-09-22T05:24:50.655Z,101145.29
2018-09-22T05:27:18.924Z,101160.75
2018-09-22T05:29:47.119Z,101178.63
2018-09-22T05:32:15.280Z,101175.13
2018-09-22T05:34:43.514Z,101175.34
2018-09-22T05:37:11.686Z,101171.69
2018-09-22T05:39:39.849Z,101166.97
2018-09-22T05:42:07.970Z,101171.19
2018-09-22T05:44:36.783Z,101176.22
2018-09-22T05:47:05.135Z,101173.00
2018-09-22T05:49:33.364Z,101180.41
2018-09-22T05:52:01.509Z,101179.19
2018-09-22T05:54:29.653Z,101192.80
2018-09-22T05:56:57.839Z,101187.13
2018-09-22T05:59:32.847Z,101187.73
2018-09-22T06:02:01.105Z,101199.58
2018-09-22T06:04:29.372Z,101202.28
2018-09-22T06:06:57.536Z,101197.73
2018-09-22T06:09:25.711Z,101215.27
2018-09-22T06:11:53.943Z,101214.57
2018-09-22T06:14:22.154Z,101202.27
2018-09-22T06:16:50.337Z,101217.76
2018-09-22T06:19:18.575Z,101228.48
2018-09-22T06:21:46.713Z,101225.22
2018-09-22T06:24:14.879Z,101225.55
2018-09-22T06:26:43.128Z,101232.27
2018-09-22T06:29:11.338Z,101243.86
2018-09-22T06:31:39.485Z,101237.86
2018-09-22T06:34:07.710Z,101243.39
2018-09-22T06:36:35.981Z,101242.19
2018-09-22T06:39:05.809Z,101250.20
2018-09-22T06:41:34.074Z,101250.66
2018-09-22T06:44:02.379Z,101249.62
2018-09-22T06:46:30.606Z,101247.37
2018-09-22T06:48:58.744Z,101260.45
2018-09-22T06:51:27.023Z,101250.48
2018-09-22T06:53:55.991Z,101260.70
2018-09-22T06:56:24.265Z,101261.03
2018-09-22T06:58:59.230Z,101255.88
2018-09-22T07:01:27.403Z,101260.07
2018-09-22T07:03:55.534Z,101262.52
2018-09-22T07:06:23.708Z,101266.64
2018-09-22T07:08:52.394Z,101272.47
2018-09-22T07:11:20.643Z,101271.61
2018-09-22T07:13:49.573Z,101281.37
2018-09-22T07:16:17.745Z,101282.25
2018-09-22T07:18:45.979Z,101290.18
2018-09-22T07:21:14.507Z,101281.83
2018-09-22T07:23:42.702Z,101281.02
2018-09-22T07:26:10.978Z,101286.61
2018-09-22T07:28:39.151Z,101284.03
2018-09-22T07:31:07.839Z,101289.22
2018-09-22T07:33:36.303Z,101289.66
2018-09-22T07:36:04.464Z,101292.72
2018-09-22T07:38:33.192Z,101291.96
2018-09-22T07:41:01.414Z,101294.27
2018-09-22T07:43:29.685Z,101301.36
2018-09-22T07:45:58.487Z,101298.12
2018-09-22T07:48:26.691Z,101291.27
2018-09-22T07:50:54.909Z,101306.88
2018-09-22T07:53:23.150Z,101308.13
2018-09-22T07:55:51.292Z,101318.70
2018-09-22T07:58:19.507Z,101316.84
2018-09-22T08:00:47.729Z,101320.23
2018-09-22T08:03:16.024Z,101320.83
2018-09-22T08:05:44.197Z,101326.83
2018-09-22T08:08:12.574Z,101327.13
2018-09-22T08:10:40.791Z,101336.89
2018-09-22T08:13:09.031Z,101331.45
2018-09-22T08:15:37.371Z,101336.09
2018-09-22T08:18:05.579Z,101341.61
2018-09-22T08:20:33.752Z,101335.34
2018-09-22T08:23:03.699Z,101344.61
2018-09-22T08:25:32.093Z,101337.40
2018-09-22T08:28:00.341Z,101335.56
2018-09-22T08:30:29.335Z,101342.22
2018-09-22T08:32:58.348Z,101342.22
2018-09-22T08:35:27.503Z,101341.52
2018-09-22T08:37:55.766Z,101346.98
2018-09-22T08:40:23.940Z,101353.95
2018-09-22T08:42:52.104Z,101358.70
2018-09-22T08:45:20.357Z,101350.03
2018-09-22T08:47:48.552Z,101348.34
2018-09-22T08:50:16.782Z,101346.94
2018-09-22T08:52:45.071Z,101344.02
2018-09-22T08:55:13.275Z,101342.80
2018-09-22T08:57:41.483Z,101337.34
2018-09-22T09:00:09.702Z,101338.55
2018-09-22T09:02:37.956Z,101347.68
2018-09-22T09:05:06.294Z,101346.73
2018-09-22T09:07:35.192Z,101338.64
2018-09-22T09:10:03.420Z,101347.57
2018-09-22T09:12:31.682Z,101353.00
2018-09-22T09:15:00.002Z,101356.03
2018-09-22T09:17:28.158Z,101352.55
2018-09-22T09:19:56.396Z,101350.93
2018-09-22T09:22:24.780Z,101360.75
2018-09-22T09:24:53.008Z,101353.30
2018-09-22T09:27:21.219Z,101344.95
2018-09-22T09:29:49.511Z,101344.38
2018-09-22T09:32:18.301Z,101354.38
2018-09-22T09:34:47.489Z,101351.67
2018-09-22T09:37:15.638Z,101351.57
2018-09-22T09:39:43.940Z,101352.14
2018-09-22T09:42:12.173Z,101350.28
2018-09-22T09:44:40.365Z,101355.41
2018-09-22T09:47:08.595Z,101358.19
2018-09-22T09:49:36.824Z,101358.38
2018-09-22T09:52:05.049Z,101352.20
2018-09-22T09:54:34.056Z,101351.33
2018-09-22T09:57:13.416Z,101347.86
2018-09-22T09:59:41.676Z,101350.88
2018-09-22T10:02:10.029Z,101356.17
2018-09-22T10:04:38.869Z,101347.62
2018-09-22T10:07:07.174Z,101355.20
2018-09-22T10:09:35.348Z,101353.73
2018-09-22T10:12:03.568Z,101350.95
2018-09-22T10:14:32.148Z,101340.50
2018-09-22T10:17:00.917Z,101327.77
2018-09-22T10:19:30.203Z,101335.97
2018-09-22T10:21:58.530Z,101333.89
2018-09-22T10:24:27.226Z,101347.66
2018-09-22T10:26:55.406Z,101334.30
2018-09-22T10:29:23.558Z,101341.09
2018-09-22T10:31:51.888Z,101339.02
2018-09-22T10:34:20.092Z,101341.45
2018-09-22T10:36:48.255Z,101337.20
2018-09-22T10:39:16.533Z,101342.61
2018-09-22T10:41:55.529Z,101341.62
2018-09-22T10:44:24.433Z,101339.03
2018-09-22T10:46:52.747Z,101342.69
2018-09-22T10:49:21.795Z,101348.34
2018-09-22T10:51:50.705Z,101344.80
2018-09-22T10:54:19.260Z,101344.63
2018-09-22T10:56:47.621Z,101347.11
2018-09-22T10:59:15.916Z,101345.91
2018-09-22T11:01:45.056Z,101343.24
2018-09-22T11:04:13.392Z,101342.16
2018-09-22T11:06:41.655Z,101349.64
2018-09-22T11:09:09.855Z,101346.24
2018-09-22T11:11:38.092Z,101342.14
2018-09-22T11:14:06.415Z,101340.92
2018-09-22T11:16:34.574Z,101338.15
2018-09-22T11:19:02.981Z,101328.53
2018-09-22T11:21:31.399Z,101334.59
2018-09-22T11:23:59.663Z,101319.18
2018-09-22T11:26:27.904Z,101316.67
2018-09-22T11:28:56.978Z,101316.20
2018-09-22T11:31:25.209Z,101308.47
2018-09-22T11:33:53.388Z,101296.94
2018-09-22T11:36:21.621Z,101288.91
2018-09-22T11:38:49.803Z,101285.30
2018-09-22T11:41:18.078Z,101298.26
2018-09-22T11:43:46.376Z,101298.88
2018-09-22T11:46:14.542Z,101304.74
2018-09-22T11:48:42.744Z,101298.11
2018-09-22T11:51:10.907Z,101296.64
2018-09-22T11:53:39.172Z,101294.05
2018-09-22T11:56:07.332Z,101296.50
2018-09-22T11:58:35.552Z,101304.03
2018-09-22T12:01:03.853Z,101303.92
2018-09-22T12:03:31.996Z,101305.21
2018-09-22T12:06:00.329Z,101315.39
2018-09-22T12:08:28.483Z,101312.50
2018-09-22T12:10:56.872Z,101305.80
2018-09-22T12:13:25.067Z,101290.99
2018-09-22T12:15:53.272Z,101293.45
2018-09-22T12:18:21.476Z,101283.81
2018-09-22T12:20:49.681Z,101285.09
2018-09-22T12:23:17.927Z,101275.97
2018-09-22T12:25:46.237Z,101274.20
2018-09-22T12:28:14.997Z,101284.91
2018-09-22T12:30:43.248Z,101285.78
2018-09-22T12:33:11.469Z,101286.66
2018-09-22T12:35:39.725Z,101280.25
2018-09-22T12:38:07.963Z,101276.77
2018-09-22T12:40:36.585Z,101273.43
2018-09-22T12:43:04.858Z,101285.34
2018-09-22T12:45:33.608Z,101279.13
2018-09-22T12:48:02.566Z,101274.75
2018-09-22T12:50:37.601Z,101277.56
2018-09-22T12:53:05.916Z,101279.16
2018-09-22T12:55:34.193Z,101270.45
2018-09-22T12:58:02.365Z,101269.75
2018-09-22T13:00:30.642Z,101281.28
2018-09-22T13:02:59.193Z,101278.09
2018-09-22T13:05:28.795Z,101280.59
2018-09-22T13:07:57.042Z,101270.57
2018-09-22T13:10:25.345Z,101271.36
2018-09-22T13:12:53.728Z,101261.69
2018-09-22T13:15:22.107Z,101269.58
2018-09-22T13:17:50.393Z,101273.02
2018-09-22T13:20:20.693Z,101278.23
2018-09-22T13:22:48.979Z,101283.95
2018-09-22T13:25:17.780Z,101280.50
2018-09-22T13:27:46.003Z,101282.33
2018-09-22T13:30:14.221Z,101279.88
2018-09-22T13:32:42.565Z,101274.30
2018-09-22T13:35:10.760Z,101262.39
2018-09-22T13:37:39.017Z,101263.33
2018-09-22T13:40:07.279Z,101272.17
2018-09-22T13:42:35.544Z,101260.13
2018-09-22T13:45:03.682Z,101254.37
2018-09-22T13:47:31.874Z,101248.54
2018-09-22T13:50:00.280Z,101255.08
2018-09-22T13:52:28.644Z,101257.87
2018-09-22T13:54:56.862Z,101253.56
2018-09-22T13:57:25.211Z,101253.05
2018-09-22T13:59:57.938Z,101256.08
2018-09-22T14:02:26.234Z,101250.58
2018-09-22T14:05:00.061Z,101252.36
2018-09-22T14:07:28.272Z,101246.05
2018-09-22T14:09:56.633Z,101256.24
2018-09-22T14:12:25.013Z,101255.47
2018-09-22T14:14:53.658Z,101246.19
2018-09-22T14:17:21.856Z,101252.33
2018-09-22T14:19:50.619Z,101256.69
2018-09-22T14:22:18.818Z,101253.66
2018-09-22T14:24:47.006Z,101248.81
2018-09-22T14:27:15.254Z,101233.84
2018-09-22T14:29:44.721Z,101239.92
2018-09-22T14:32:13.466Z,101248.30
2018-09-22T14:34:41.696Z,101243.20
2018-09-22T14:37:09.963Z,101239.12
2018-09-22T14:39:40.386Z,101247.89
2018-09-22T14:42:08.723Z,101249.11
2018-09-22T14:44:37.774Z,101248.87
2018-09-22T14:47:06.868Z,101247.14
2018-09-22T14:49:35.089Z,101258.26
2018-09-22T14:52:04.219Z,101241.48
2018-09-22T14:54:33.733Z,101242.29
2018-09-22T14:57:01.964Z,101236.59
2018-09-22T14:59:30.117Z,101245.33
2018-09-22T15:01:58.284Z,101244.07
2018-09-22T15:04:26.727Z,101236.57
2018-09-22T15:06:55.505Z,101221.78
2018-09-22T15:09:31.914Z,101227.47
2018-09-22T15:12:02.403Z,101228.03
2018-09-22T15:14:30.831Z,101235.17
2018-09-22T15:16:59.952Z,101226.36
2018-09-22T15:19:29.557Z,101229.89
2018-09-22T15:21:57.790Z,101224.82
2018-09-22T15:24:26.096Z,101236.84
2018-09-22T15:26:54.314Z,101229.92
2018-09-22T15:29:28.707Z,101227.53
2018-09-22T15:31:57.576Z,101230.95
2018-09-22T15:37:02.863Z,101222.88
2018-09-22T15:39:31.148Z,101222.30
2018-09-22T15:41:59.429Z,101220.55
2018-09-22T15:44:27.882Z,101214.92
2018-09-22T15:46:58.713Z,101228.41
2018-09-22T15:49:29.113Z,101232.89
2018-09-22T15:51:57.514Z,101227.53
2018-09-22T15:54:26.394Z,101234.91
2018-09-22T15:56:54.559Z,101233.56
2018-09-22T15:59:22.747Z,101225.66
2018-09-22T16:01:50.958Z,101216.67
2018-09-22T16:04:19.376Z,101218.92
2018-09-22T16:06:47.719Z,101211.80
2018-09-22T16:09:21.685Z,101215.75
2018-09-22T16:11:50.622Z,101208.53
2018-09-22T16:14:18.943Z,101211.54
2018-09-22T16:16:47.142Z,101203.03
2018-09-22T16:19:15.371Z,101207.86
2018-09-22T16:21:43.911Z,101206.16
2018-09-22T16:24:13.250Z,101213.61
2018-09-22T16:26:41.393Z,101209.26
2018-09-22T16:29:09.679Z,101206.54
2018-09-22T16:31:38.719Z,101199.56
2018-09-22T16:34:10.037Z,101203.28
2018-09-22T16:36:38.447Z,101204.60
2018-09-22T16:39:07.920Z,101215.55
2018-09-22T16:41:36.841Z,101215.45
2018-09-22T16:44:05.899Z,101207.88
2018-09-22T16:46:34.647Z,101212.25
2018-09-22T16:49:02.988Z,101208.75
2018-09-22T16:51:31.592Z,101209.55
2018-09-22T16:53:59.889Z,101206.86
2018-09-22T16:56:28.440Z,101208.68
2018-09-22T16:59:01.111Z,101203.36
2018-09-22T17:01:31.800Z,101202.59
2018-09-22T17:04:00.104Z,101201.14
2018-09-22T17:06:28.314Z,101191.08
2018-09-22T17:08:57.063Z,101191.81
2018-09-22T17:11:30.947Z,101184.23
2018-09-22T17:13:59.382Z,101203.37
2018-09-22T17:16:28.693Z,101206.03
2018-09-22T17:18:57.359Z,101200.31
2018-09-22T17:21:28.971Z,101188.09
2018-09-22T17:23:59.169Z,101196.98
2018-09-22T17:26:27.609Z,101216.70
2018-09-22T17:28:55.793Z,101204.75
2018-09-22T17:31:24.332Z,101205.73
2018-09-22T17:33:53.132Z,101199.66
2018-09-22T17:36:21.476Z,101192.50
2018-09-22T17:41:26.083Z,101184.23
2018-09-22T17:43:54.340Z,101205.50
2018-09-22T17:46:22.536Z,101208.53
2018-09-22T17:48:53.920Z,101209.75
2018-09-22T17:51:25.909Z,101219.18
2018-09-22T17:53:59.484Z,101212.58
2018-09-22T17:56:27.754Z,101206.05
2018-09-22T17:58:55.969Z,101214.69
2018-09-22T18:01:29.233Z,101228.47
2018-09-22T18:03:58.018Z,101212.73
2018-09-22T18:06:26.157Z,101216.23
2018-09-22T18:08:54.570Z,101217.50
2018-09-22T18:11:22.812Z,101209.23
2018-09-22T18:13:51.323Z,101202.68
2018-09-22T18:16:19.540Z,101208.52
2018-09-22T18:18:47.804Z,101208.12
2018-09-22T18:21:16.636Z,101208.88
2018-09-22T18:23:44.849Z,101206.61
2018-09-22T18:26:13.060Z,101201.92
2018-09-22T18:28:41.298Z,101209.04
2018-09-22T18:31:09.540Z,101203.98
2018-09-22T18:33:37.752Z,101201.37
2018-09-22T18:36:06.506Z,101193.73
2018-09-22T18:38:34.710Z,101197.39
2018-09-22T18:41:02.978Z,101196.92
2018-09-22T18:43:31.266Z,101197.39
2018-09-22T18:46:04.588Z,101193.19
2018-09-22T18:48:32.932Z,101205.30
2018-09-22T18:51:01.157Z,101206.30
2018-09-22T18:53:30.138Z,101215.00
2018-09-22T18:55:58.576Z,101226.14
2018-09-22T18:58:27.058Z,101218.54
2018-09-22T19:00:55.203Z,101215.63
2018-09-22T19:03:23.403Z,101216.64
2018-09-22T19:05:51.779Z,101213.54
2018-09-22T19:08:19.918Z,101210.95
2018-09-22T19:10:48.114Z,101213.41
2018-09-22T19:13:20.519Z,101228.03
2018-09-22T19:15:51.519Z,101227.13
2018-09-22T19:18:24.792Z,101226.98
2018-09-22T19:20:56.535Z,101224.28
2018-09-22T19:23:31.099Z,101231.55
2018-09-22T19:26:13.210Z,101243.63
2018-09-22T19:29:48.226Z,101243.23
2018-09-22T19:32:27.540Z,101244.84
2018-09-22T19:37:36.117Z,101233.95
2018-09-22T19:40:14.721Z,101233.39
2018-09-22T19:42:46.709Z,101234.64
2018-09-22T19:45:26.378Z,101236.18
2018-09-22T19:48:00.149Z,101237.19
2018-09-22T19:50:36.863Z,101228.33
2018-09-22T19:53:05.418Z,101236.59
2018-09-22T19:55:33.903Z,101241.25
2018-09-22T19:58:02.609Z,101246.70
2018-09-22T20:00:32.280Z,101254.49
2018-09-22T20:03:00.573Z,101249.32
2018-09-22T20:05:28.817Z,101245.01
2018-09-22T20:07:57.226Z,101251.88
2018-09-22T20:10:25.458Z,101255.80
2018-09-22T20:12:54.802Z,101253.73
2018-09-22T20:15:23.033Z,101258.86
2018-09-22T20:17:51.334Z,101271.50
2018-09-22T20:20:19.636Z,101266.88
2018-09-22T20:22:48.017Z,101269.58
2018-09-22T20:25:16.900Z,101276.62
2018-09-22T20:27:45.380Z,101277.64
2018-09-22T20:30:13.829Z,101280.43
2018-09-22T20:32:42.131Z,101275.57
2018-09-22T20:35:10.415Z,101264.61
2018-09-22T20:37:38.784Z,101270.22
2018-09-22T20:40:07.650Z,101257.27
2018-09-22T20:42:35.936Z,101252.45
2018-09-22T20:45:04.255Z,101250.98
2018-09-22T20:47:32.486Z,101249.45
2018-09-22T20:50:00.781Z,101262.53
2018-09-22T20:52:28.971Z,101267.41
2018-09-22T20:54:57.252Z,101252.78
2018-09-22T20:57:25.724Z,101239.20
2018-09-22T20:59:54.021Z,101241.27
2018-09-22T21:02:22.440Z,101237.09
2018-09-22T21:04:50.881Z,101241.70
2018-09-22T21:07:19.135Z,101250.80
2018-09-22T21:09:47.377Z,101257.63
2018-09-22T21:12:15.591Z,101262.36
2018-09-22T21:14:43.866Z,101260.85
2018-09-22T21:17:12.133Z,101260.69
2018-09-22T21:19:40.374Z,101264.59
2018-09-22T21:22:08.590Z,101262.11
2018-09-22T21:24:36.886Z,101262.68
2018-09-22T21:27:05.083Z,101274.92
2018-09-22T21:29:40.123Z,101274.88
2018-09-22T21:32:08.304Z,101270.50
2018-09-22T21:34:36.532Z,101270.20
2018-09-22T21:37:04.914Z,101268.45
2018-09-22T21:39:33.116Z,101268.21
2018-09-22T21:42:01.366Z,101269.89
2018-09-22T21:44:30.363Z,101265.78
2018-09-22T21:46:58.499Z,101264.03
2018-09-22T21:49:26.885Z,101272.03
2018-09-22T21:51:55.281Z,101265.45
2018-09-22T21:54:23.457Z,101265.50
2018-09-22T21:56:51.741Z,101266.20
2018-09-22T21:59:19.912Z,101263.00
2018-09-22T22:01:48.126Z,101272.77
2018-09-22T22:04:16.500Z,101273.11
2018-09-22T22:06:44.831Z,101273.41
2018-09-22T22:09:14.245Z,101275.75
2018-09-22T22:11:42.605Z,101270.59
2018-09-22T22:14:11.231Z,101265.53
2018-09-22T22:16:40.148Z,101260.14
2018-09-22T22:19:08.770Z,101260.73
2018-09-22T22:21:36.945Z,101266.08
2018-09-22T22:24:05.315Z,101252.34
2018-09-22T22:26:33.604Z,101263.32
2018-09-22T22:29:01.755Z,101260.37
2018-09-22T22:31:30.003Z,101259.20
2018-09-22T22:33:58.220Z,101257.11
2018-09-22T22:36:26.517Z,101246.81
2018-09-22T22:38:54.669Z,101246.63
2018-09-22T22:41:23.013Z,101248.83
2018-09-22T22:43:51.221Z,101234.01
2018-09-22T22:46:19.554Z,101240.19
2018-09-22T22:48:47.815Z,101238.47
2018-09-22T22:51:16.056Z,101232.03
2018-09-22T22:53:44.257Z,101235.20
2018-09-22T22:56:12.434Z,101240.80
2018-09-22T22:58:40.650Z,101239.12
2018-09-22T23:01:09.115Z,101238.61
2018-09-22T23:03:37.245Z,101235.66
2018-09-22T23:06:05.399Z,101227.38
2018-09-22T23:08:33.699Z,101236.31
2018-09-22T23:11:08.628Z,101224.45
2018-09-22T23:13:36.895Z,101231.17
2018-09-22T23:16:05.059Z,101215.66
2018-09-22T23:18:33.224Z,101228.45
2018-09-22T23:21:01.575Z,101231.74
2018-09-22T23:23:29.865Z,101234.89
2018-09-22T23:25:58.133Z,101236.56
2018-09-22T23:28:26.314Z,101233.05
2018-09-22T23:30:54.607Z,101231.40
2018-09-22T23:33:22.867Z,101225.27
2018-09-22T23:35:51.010Z,101223.75
2018-09-22T23:38:19.163Z,101222.67
2018-09-22T23:40:47.353Z,101219.43
2018-09-22T23:43:15.470Z,101223.02
2018-09-22T23:45:43.724Z,101221.65
2018-09-22T23:48:12.051Z,101218.74
2018-09-22T23:50:40.189Z,101211.35
2018-09-22T23:53:08.352Z,101222.34
2018-09-22T23:55:36.532Z,101220.98
2018-09-22T23:58:05.373Z,101224.69
